CheckWX is a tool to help pilots better visualize weather data.  It is not intended as a substitute for an official pre-flight weather briefing.

15:41:05 UTC

CYQV METAR
Yorkton Municipal Airport
Yorkton, Canada
Current

12 mins ago

CYQV 201529Z AUTO 17006KT 9SM CLR M22/M25 A2974 RMK SLP125
Observed
Feb-20 @ 15:29 UTC
Wind
  • 170° at 6 KTS
Visibility
14,484 meters
Flight Rules
VFR
Cloud Levels
  • Clear skies
Temperature
-22°C / -8°F
Dewpoint
-25°C / -13°F
Humidity
77%
Altimeter
29.74" Hg
Pressure
1012.5 hPa
Previous

34 mins ago

CYQV 201507Z AUTO 18008KT 9SM -SN CLR M23/M26 A2974 RMK SLP123
Observed
Feb-20 @ 15:07 UTC
Wind
  • 180° at 8 KTS
Visibility
14,484 meters
Flight Rules
VFR
Conditions
Light Snow
Cloud Levels
  • Clear skies
Temperature
-23°C / -9°F
Dewpoint
-26°C / -15°F
Humidity
77%
Altimeter
29.74" Hg
Pressure
1012.3 hPa
Previous

1 hour ago

CYQV 201413Z AUTO 17006KT 9SM FEW140 M24/M27 A2974 RMK SLP125
Observed
Feb-20 @ 14:13 UTC
Wind
  • 170° at 6 KTS
Visibility
14,484 meters
Flight Rules
VFR
Cloud Levels
  • Few at 14,000' AGL
Temperature
-24°C / -11°F
Dewpoint
-27°C / -17°F
Humidity
76%
Altimeter
29.74" Hg
Pressure
1012.5 hPa